Time;durP1;ratioP1;P1;durP2;ratioP2;P2;SDS_P1;SDS_P2;PMS_P1;PMS_P2;Temp;Humidity;BMP_temperature;BMP_pressure;BME280_temperature;BME280_humidity;BME280_pressure;Samples;Min_cycle;Max_cycle;Signal;HPM_P1;HPM_P2
2021/08/20 00:02:15;;;;;;;7.03;4.90;;;17.50;80.20;;;;;;5015170;28;20053;-88
2021/08/20 00:04:42;;;;;;;6.15;4.43;;;17.50;80.20;;;;;;5014377;28;20081;-89
2021/08/20 00:07:10;;;;;;;9.30;4.97;;;17.50;80.20;;;;;;5014371;28;20408;-88
2021/08/20 00:09:37;;;;;;;6.03;4.90;;;17.40;80.30;;;;;;5045280;28;20072;-88
2021/08/20 00:12:05;;;;;;;6.35;4.32;;;17.40;80.30;;;;;;4999106;28;20049;-89
2021/08/20 00:14:32;;;;;;;10.65;5.28;;;17.40;80.40;;;;;;5014630;28;20084;-88
2021/08/20 00:16:59;;;;;;;6.95;5.13;;;17.40;80.40;;;;;;5014124;28;20510;-88
2021/08/20 00:19:25;;;;;;;9.82;5.05;;;17.40;80.50;;;;;;5014258;28;20100;-88
2021/08/20 00:21:52;;;;;;;7.75;5.00;;;17.40;80.50;;;;;;5014029;28;20054;-89
2021/08/20 00:24:19;;;;;;;6.22;3.75;;;17.40;80.60;;;;;;5014000;28;20050;-89
2021/08/20 00:26:46;;;;;;;7.40;5.15;;;17.40;80.60;;;;;;5013878;28;20517;-89
2021/08/20 00:29:13;;;;;;;9.05;5.38;;;17.40;80.70;;;;;;5014590;28;20053;-89
2021/08/20 00:31:40;;;;;;;11.73;5.45;;;17.40;80.70;;;;;;5013972;28;20049;-90
2021/08/20 00:34:06;;;;;;;8.07;5.78;;;17.40;80.80;;;;;;5014162;28;20045;-90
2021/08/20 00:36:33;;;;;;;7.38;5.50;;;17.40;80.90;;;;;;5013932;28;20058;-88
2021/08/20 00:39:00;;;;;;;9.10;6.22;;;17.40;81.00;;;;;;5045897;28;20402;-88
2021/08/20 00:41:27;;;;;;;6.97;5.10;;;17.40;81.00;;;;;;5013025;28;20050;-89
2021/08/20 00:43:54;;;;;;;8.25;6.15;;;17.40;81.10;;;;;;5013674;28;20103;-88
2021/08/20 00:46:21;;;;;;;8.65;5.35;;;17.40;81.20;;;;;;5013589;28;20053;-90
2021/08/20 00:48:48;;;;;;;12.02;6.32;;;17.40;81.30;;;;;;5013846;28;20053;-89
2021/08/20 00:51:24;;;;;;;8.05;5.88;;;17.40;81.40;;;;;;5012379;28;20552;-89
2021/08/20 00:53:52;;;;;;;8.18;5.43;;;17.40;81.40;;;;;;5012654;28;20050;-90
2021/08/20 00:56:19;;;;;;;8.05;5.78;;;17.40;81.50;;;;;;5014040;28;20054;-89
2021/08/20 00:58:48;;;;;;;7.00;5.70;;;17.40;81.50;;;;;;5013762;28;20050;-90
2021/08/20 01:01:16;;;;;;;8.13;5.90;;;17.40;81.50;;;;;;5012465;28;20111;-89
2021/08/20 01:03:44;;;;;;;8.63;6.18;;;17.40;81.50;;;;;;5013198;28;20502;-89
2021/08/20 01:06:11;;;;;;;6.65;5.00;;;17.40;81.60;;;;;;5013629;28;20053;-91
2021/08/20 01:08:38;;;;;;;10.10;6.72;;;17.40;81.60;;;;;;5013873;28;20049;-89
2021/08/20 01:11:08;;;;;;;10.02;6.05;;;17.40;81.70;;;;;;5032547;28;20125;-90
2021/08/20 01:13:38;;;;;;;8.27;6.20;;;17.40;81.70;;;;;;5010763;28;20054;-89
2021/08/20 01:16:06;;;;;;;7.65;5.28;;;17.40;81.80;;;;;;5013266;28;20049;-89
2021/08/20 01:18:34;;;;;;;11.57;6.07;;;17.40;81.80;;;;;;5012287;28;20100;-90
2021/08/20 01:21:04;;;;;;;7.43;5.47;;;17.40;81.80;;;;;;4996720;28;20417;-91
2021/08/20 01:23:31;;;;;;;8.60;6.75;;;17.40;81.80;;;;;;5013505;28;20049;-89
2021/08/20 01:25:58;;;;;;;8.50;5.90;;;17.40;81.80;;;;;;5012632;28;20065;-90
2021/08/20 01:28:26;;;;;;;8.75;6.70;;;17.40;81.80;;;;;;5013188;28;20053;-89
2021/08/20 01:31:13;;;;;;;6.88;5.43;;;17.40;81.80;;;;;;5011822;28;20049;-91
2021/08/20 01:33:41;;;;;;;9.07;6.68;;;17.40;81.80;;;;;;5013088;28;20403;-90
2021/08/20 01:36:08;;;;;;;12.30;6.68;;;17.40;81.80;;;;;;5013033;28;20049;-91
2021/08/20 01:38:51;;;;;;;9.23;5.40;;;17.40;81.80;;;;;;5013338;28;20046;-91
2021/08/20 01:41:21;;;;;;;9.77;6.15;;;17.40;81.80;;;;;;5012254;28;20053;-90
2021/08/20 01:43:48;;;;;;;8.27;5.40;;;17.40;81.90;;;;;;5013038;28;20054;-90
2021/08/20 01:46:15;;;;;;;7.07;5.03;;;17.40;81.90;;;;;;5011591;28;20461;-90
2021/08/20 01:48:54;;;;;;;6.60;5.43;;;17.40;81.90;;;;;;5011712;28;20037;-89
2021/08/20 01:51:23;;;;;;;8.43;5.80;;;17.40;81.90;;;;;;5011708;28;20100;-91
2021/08/20 01:53:51;;;;;;;9.07;5.82;;;17.40;82.00;;;;;;5012086;28;20179;-88
2021/08/20 01:56:26;;;;;;;7.00;5.00;;;17.40;82.00;;;;;;5013344;28;20112;-90
2021/08/20 01:58:58;;;;;;;7.95;4.60;;;17.40;82.00;;;;;;5011421;28;20399;-91
2021/08/20 02:01:31;;;;;;;10.70;5.68;;;17.40;82.00;;;;;;5012707;28;20499;-92
2021/08/20 02:03:58;;;;;;;6.55;5.18;;;17.40;82.10;;;;;;5012574;28;20129;-90
2021/08/20 02:06:25;;;;;;;6.63;5.50;;;17.40;82.10;;;;;;5012716;28;20061;-90
2021/08/20 02:08:53;;;;;;;7.15;6.03;;;17.40;82.10;;;;;;5011612;28;20053;-89
2021/08/20 02:11:20;;;;;;;8.02;5.00;;;17.40;82.10;;;;;;5012917;28;20094;-90
2021/08/20 02:13:47;;;;;;;9.95;5.85;;;17.40;82.10;;;;;;5010641;28;20065;-91
2021/08/20 02:16:14;;;;;;;9.02;5.25;;;17.40;82.20;;;;;;5012517;28;20050;-90
2021/08/20 02:18:42;;;;;;;8.93;4.68;;;17.40;82.10;;;;;;5012433;28;20046;-91
2021/08/20 02:21:09;;;;;;;7.45;5.65;;;17.40;82.10;;;;;;5011358;28;20104;-90
2021/08/20 02:23:38;;;;;;;7.07;5.35;;;17.40;82.10;;;;;;5012192;28;20104;-90
2021/08/20 02:26:05;;;;;;;6.80;4.78;;;17.40;82.10;;;;;;5012088;28;20441;-90
2021/08/20 02:28:32;;;;;;;8.00;5.22;;;17.40;82.20;;;;;;5011515;28;20080;-90
2021/08/20 02:30:59;;;;;;;7.53;5.38;;;17.40;82.10;;;;;;5011029;28;20108;-90
2021/08/20 02:33:27;;;;;;;9.90;6.30;;;17.40;82.10;;;;;;5012241;28;20582;-88
2021/08/20 02:35:53;;;;;;;7.13;5.45;;;17.40;82.20;;;;;;5011976;28;20046;-90
2021/08/20 02:38:20;;;;;;;7.55;5.68;;;17.40;82.20;;;;;;5012161;28;20056;-89
2021/08/20 02:40:47;;;;;;;7.38;5.30;;;17.40;82.20;;;;;;5012021;28;20100;-88
2021/08/20 02:43:14;;;;;;;7.28;4.90;;;17.40;82.30;;;;;;5010755;28;20061;-90
2021/08/20 02:45:41;;;;;;;9.38;5.18;;;17.40;82.30;;;;;;5011789;28;20046;-89
2021/08/20 02:48:08;;;;;;;11.30;6.25;;;17.40;82.30;;;;;;5011885;28;20049;-89
2021/08/20 02:50:35;;;;;;;7.63;5.50;;;17.40;82.30;;;;;;5012133;28;20537;-88
2021/08/20 02:53:02;;;;;;;7.20;5.25;;;17.40;82.40;;;;;;5011821;28;20469;-91
2021/08/20 02:55:29;;;;;;;12.43;6.00;;;17.40;82.40;;;;;;5011824;28;20053;-91
2021/08/20 02:57:55;;;;;;;7.47;5.40;;;17.40;82.40;;;;;;5011892;28;20465;-91
2021/08/20 03:00:22;;;;;;;7.65;4.95;;;17.40;82.50;;;;;;5011818;28;20108;-91
2021/08/20 03:02:49;;;;;;;9.23;5.10;;;17.30;82.50;;;;;;5010572;28;20054;-89
2021/08/20 03:05:17;;;;;;;7.22;4.50;;;17.30;82.50;;;;;;5012282;28;20049;-90
2021/08/20 03:07:44;;;;;;;13.75;6.30;;;17.30;82.60;;;;;;5033415;28;20097;-90
2021/08/20 03:10:11;;;;;;;12.98;5.20;;;17.30;82.60;;;;;;5005750;28;20132;-89
2021/08/20 03:12:38;;;;;;;8.68;4.60;;;17.30;82.60;;;;;;5011642;28;20046;-91
2021/08/20 03:15:06;;;;;;;6.90;4.70;;;17.30;82.60;;;;;;5011956;28;20057;-87
2021/08/20 03:17:33;;;;;;;7.10;5.07;;;17.30;82.60;;;;;;5012124;28;20051;-89
2021/08/20 03:20:00;;;;;;;6.43;4.63;;;17.20;82.50;;;;;;5012201;28;20050;-91
2021/08/20 03:22:27;;;;;;;8.15;4.40;;;17.20;82.50;;;;;;5011263;28;20053;-90
2021/08/20 03:24:54;;;;;;;10.55;4.68;;;17.20;82.40;;;;;;5012019;28;20096;-90
2021/08/20 03:27:22;;;;;;;7.07;5.20;;;17.20;82.40;;;;;;5015295;28;20411;-90
2021/08/20 03:29:49;;;;;;;6.50;4.80;;;17.20;82.30;;;;;;5015453;28;20049;-91
2021/08/20 03:32:16;;;;;;;6.30;4.50;;;17.20;82.30;;;;;;5015809;28;20494;-90
2021/08/20 03:34:43;;;;;;;7.03;4.65;;;17.20;82.30;;;;;;5015244;28;20049;-90
2021/08/20 03:37:10;;;;;;;6.70;4.63;;;17.20;82.20;;;;;;5014663;28;20487;-91
2021/08/20 03:39:37;;;;;;;13.10;5.10;;;17.10;82.20;;;;;;5015107;28;20485;-90
2021/08/20 03:42:04;;;;;;;5.53;4.45;;;17.10;82.20;;;;;;5015317;28;20050;-90
2021/08/20 03:44:31;;;;;;;7.43;4.80;;;17.10;82.30;;;;;;5015292;28;20053;-88
2021/08/20 03:46:58;;;;;;;7.97;5.65;;;17.00;82.30;;;;;;5014056;28;20068;-90
2021/08/20 03:49:25;;;;;;;7.38;5.22;;;17.00;82.40;;;;;;5014990;28;20057;-88
2021/08/20 03:51:51;;;;;;;8.00;5.43;;;17.00;82.40;;;;;;5014921;28;20426;-90
2021/08/20 03:54:18;;;;;;;10.20;5.22;;;17.00;82.40;;;;;;5014730;28;20041;-89
2021/08/20 03:56:45;;;;;;;8.65;5.72;;;17.00;82.40;;;;;;5014960;28;20046;-89
2021/08/20 03:59:12;;;;;;;9.88;6.50;;;16.90;82.40;;;;;;5015296;28;20053;-89
2021/08/20 04:01:39;;;;;;;8.13;5.63;;;16.90;82.40;;;;;;5014574;28;20100;-89
2021/08/20 04:04:07;;;;;;;9.23;5.15;;;17.00;82.40;;;;;;5014172;28;20049;-90
2021/08/20 04:06:34;;;;;;;7.50;5.45;;;16.90;82.30;;;;;;5014462;28;20050;-90
2021/08/20 04:09:00;;;;;;;7.45;4.63;;;16.90;82.30;;;;;;5014707;28;20107;-89
2021/08/20 04:11:27;;;;;;;13.32;5.35;;;16.90;82.30;;;;;;5014068;28;20052;-90
2021/08/20 04:13:54;;;;;;;7.55;4.95;;;16.90;82.30;;;;;;5014458;28;20050;-89
2021/08/20 04:16:21;;;;;;;7.95;5.63;;;16.90;82.20;;;;;;5014263;28;20046;-89
2021/08/20 04:18:48;;;;;;;7.07;5.20;;;16.90;82.20;;;;;;5013933;28;20077;-89
2021/08/20 04:21:15;;;;;;;10.20;5.88;;;16.90;82.20;;;;;;5014487;28;20460;-90
2021/08/20 04:23:42;;;;;;;6.45;4.57;;;16.90;82.20;;;;;;5014477;28;20054;-89
2021/08/20 04:26:09;;;;;;;7.20;5.45;;;16.90;82.30;;;;;;5013644;28;20096;-89
2021/08/20 04:28:35;;;;;;;8.63;6.00;;;16.80;82.30;;;;;;5014223;28;20461;-90
2021/08/20 04:31:02;;;;;;;6.10;4.75;;;16.80;82.30;;;;;;5014258;28;20057;-90
2021/08/20 04:33:29;;;;;;;11.15;6.43;;;16.80;82.30;;;;;;5013982;28;20045;-90
2021/08/20 04:35:56;;;;;;;9.57;5.88;;;16.80;82.30;;;;;;5014133;28;20096;-91
2021/08/20 04:38:23;;;;;;;8.75;5.45;;;16.80;82.30;;;;;;5014369;28;20046;-91
2021/08/20 04:40:50;;;;;;;7.18;4.80;;;16.70;82.30;;;;;;5014114;28;20061;-90
2021/08/20 04:43:18;;;;;;;10.35;5.18;;;16.70;82.30;;;;;;5014015;28;20046;-90
2021/08/20 04:45:46;;;;;;;5.70;4.47;;;16.70;82.30;;;;;;5043854;28;20465;-91
2021/08/20 04:48:13;;;;;;;8.15;6.30;;;16.70;82.40;;;;;;5000085;28;20071;-90
2021/08/20 04:50:40;;;;;;;13.77;6.68;;;16.70;82.40;;;;;;5014141;28;20053;-90
2021/08/20 04:53:07;;;;;;;8.13;6.43;;;16.70;82.40;;;;;;5014476;28;20050;-90
2021/08/20 04:55:34;;;;;;;7.78;5.63;;;16.70;82.50;;;;;;5037462;28;20108;-90
2021/08/20 04:58:01;;;;;;;8.63;5.82;;;16.70;82.60;;;;;;5006629;28;20042;-91
2021/08/20 05:00:28;;;;;;;11.82;6.28;;;16.60;82.70;;;;;;5045520;28;20407;-92
2021/08/20 05:02:55;;;;;;;6.88;5.28;;;16.60;82.80;;;;;;4997661;28;20117;-87
2021/08/20 05:05:22;;;;;;;10.60;6.65;;;16.60;82.90;;;;;;5012912;28;20050;-89
2021/08/20 05:07:49;;;;;;;9.18;6.18;;;16.60;83.00;;;;;;5013358;28;20053;-90
2021/08/20 05:10:16;;;;;;;9.23;5.57;;;16.60;83.00;;;;;;5013207;28;20470;-90
2021/08/20 05:12:43;;;;;;;9.95;6.70;;;16.60;83.10;;;;;;5013269;28;20104;-89
2021/08/20 05:15:10;;;;;;;11.48;5.80;;;16.70;83.10;;;;;;5013222;28;20061;-88
2021/08/20 05:17:37;;;;;;;6.63;5.18;;;16.70;83.10;;;;;;5013097;28;20050;-87
2021/08/20 05:20:05;;;;;;;8.23;6.15;;;16.70;83.20;;;;;;5012791;28;20050;-88
2021/08/20 05:22:51;;;;;;;10.43;5.85;;;16.70;83.20;;;;;;5012933;28;20053;-88
2021/08/20 05:25:19;;;;;;;11.13;6.13;;;16.70;83.20;;;;;;5012770;28;20156;-88
2021/08/20 05:27:47;;;;;;;10.95;5.95;;;16.70;83.20;;;;;;5012939;28;20513;-88
2021/08/20 05:30:15;;;;;;;9.50;6.22;;;16.80;83.20;;;;;;5012953;28;20053;-88
2021/08/20 05:32:42;;;;;;;9.45;6.45;;;16.80;83.20;;;;;;5012717;28;20100;-88
2021/08/20 05:35:11;;;;;;;9.82;6.65;;;16.80;83.20;;;;;;5012008;28;20115;-88
2021/08/20 05:37:38;;;;;;;9.55;6.00;;;16.80;83.30;;;;;;5012657;28;20046;-87
2021/08/20 05:40:06;;;;;;;7.75;5.88;;;16.90;83.30;;;;;;5040187;28;20046;-88
2021/08/20 05:42:32;;;;;;;9.32;5.80;;;16.80;83.30;;;;;;5001659;28;20042;-88
2021/08/20 05:45:00;;;;;;;12.27;6.90;;;16.80;83.40;;;;;;4997093;28;20506;-86
2021/08/20 05:47:26;;;;;;;7.93;6.10;;;16.90;83.40;;;;;;5008797;28;20049;-88
2021/08/20 05:49:57;;;;;;;10.63;5.82;;;16.90;83.40;;;;;;5011890;28;20053;-89
2021/08/20 05:52:24;;;;;;;7.95;5.55;;;16.90;83.40;;;;;;5012494;28;20657;-88
2021/08/20 05:54:51;;;;;;;7.43;5.93;;;16.90;83.50;;;;;;5012442;28;20042;-89
2021/08/20 05:57:19;;;;;;;8.27;6.53;;;16.90;83.50;;;;;;5012599;28;20096;-89
2021/08/20 05:59:46;;;;;;;10.70;6.05;;;16.90;83.50;;;;;;5012554;28;20100;-88
2021/08/20 06:02:12;;;;;;;8.35;6.00;;;16.90;83.50;;;;;;5012743;28;20053;-89
2021/08/20 06:04:40;;;;;;;8.60;5.47;;;16.90;83.50;;;;;;5012007;28;20060;-88
2021/08/20 06:07:07;;;;;;;9.50;5.93;;;17.00;83.50;;;;;;5012450;28;20053;-89
2021/08/20 06:09:34;;;;;;;9.35;6.13;;;17.00;83.50;;;;;;5012239;28;20506;-88
2021/08/20 06:12:01;;;;;;;14.15;6.78;;;17.00;83.50;;;;;;5012404;28;20052;-88
2021/08/20 06:14:28;;;;;;;14.52;5.38;;;17.00;83.60;;;;;;5012612;28;20049;-88
2021/08/20 06:16:55;;;;;;;8.15;5.35;;;17.00;83.60;;;;;;5012109;28;20060;-89
2021/08/20 06:19:26;;;;;;;10.30;5.43;;;17.00;83.60;;;;;;5012228;28;20494;-89
2021/08/20 06:21:53;;;;;;;12.45;5.93;;;17.10;83.60;;;;;;5012130;28;20046;-88
2021/08/20 06:24:20;;;;;;;8.77;5.18;;;17.20;83.70;;;;;;5012117;28;20054;-89
2021/08/20 06:26:47;;;;;;;8.40;5.10;;;17.20;83.70;;;;;;5011002;28;20466;-89
2021/08/20 06:29:20;;;;;;;10.90;5.22;;;17.20;83.70;;;;;;5012347;28;20490;-88
2021/08/20 06:31:48;;;;;;;7.25;5.20;;;17.20;83.70;;;;;;5012043;28;20046;-91
2021/08/20 06:34:16;;;;;;;7.50;4.30;;;17.20;83.70;;;;;;5011783;28;20470;-90
2021/08/20 06:36:43;;;;;;;7.97;5.50;;;17.30;83.70;;;;;;5012163;28;20046;-89
2021/08/20 06:39:11;;;;;;;8.13;6.07;;;17.30;83.80;;;;;;5010913;28;20108;-89
2021/08/20 06:41:38;;;;;;;9.60;5.28;;;17.30;83.80;;;;;;5010929;28;20054;-89
2021/08/20 06:44:05;;;;;;;6.97;4.72;;;17.30;83.80;;;;;;5012208;28;20050;-90
2021/08/20 06:46:32;;;;;;;14.23;5.82;;;17.40;83.80;;;;;;5010675;28;20049;-90
2021/08/20 06:48:59;;;;;;;7.35;5.75;;;17.30;83.80;;;;;;5011944;28;20461;-90
2021/08/20 06:51:26;;;;;;;8.82;5.30;;;17.40;83.80;;;;;;5012027;28;20053;-90
2021/08/20 06:53:54;;;;;;;8.48;5.90;;;17.40;83.80;;;;;;5012108;28;20052;-87
2021/08/20 06:56:20;;;;;;;7.30;5.55;;;17.40;83.90;;;;;;5012469;28;20058;-89
2021/08/20 06:58:47;;;;;;;11.20;7.38;;;17.40;84.00;;;;;;5011683;28;20046;-88
2021/08/20 07:01:16;;;;;;;8.90;5.55;;;17.50;84.10;;;;;;5014581;28;20532;-87
2021/08/20 07:03:43;;;;;;;6.55;5.25;;;17.50;84.20;;;;;;5015537;28;20051;-89
2021/08/20 07:06:20;;;;;;;15.23;6.50;;;17.60;84.30;;;;;;5015783;28;20057;-89
2021/08/20 07:08:49;;;;;;;8.27;5.93;;;17.60;84.30;;;;;;5015810;28;20046;-89
2021/08/20 07:11:17;;;;;;;7.70;6.00;;;17.70;84.30;;;;;;5014851;28;20056;-89
2021/08/20 07:13:44;;;;;;;10.68;6.15;;;17.70;84.30;;;;;;5015241;28;20565;-88
2021/08/20 07:16:12;;;;;;;9.73;6.05;;;17.80;84.40;;;;;;5014484;28;20536;-88
2021/08/20 07:18:40;;;;;;;7.40;5.05;;;17.90;84.30;;;;;;5015424;28;20528;-88
2021/08/20 07:21:07;;;;;;;7.93;5.63;;;17.90;84.30;;;;;;5015184;28;20057;-87
2021/08/20 07:23:34;;;;;;;9.23;6.00;;;17.90;84.30;;;;;;5015831;28;20053;-88
2021/08/20 07:26:03;;;;;;;11.00;5.70;;;17.90;84.20;;;;;;5015635;28;20411;-88
2021/08/20 07:28:30;;;;;;;10.48;5.63;;;17.90;84.10;;;;;;5014056;28;20054;-89
2021/08/20 07:30:58;;;;;;;8.30;4.70;;;18.00;84.10;;;;;;5015677;28;20041;-89
2021/08/20 07:33:25;;;;;;;9.38;4.85;;;18.00;84.00;;;;;;5011099;28;20046;-88
2021/08/20 07:35:53;;;;;;;9.05;4.35;;;18.00;84.00;;;;;;5015394;28;20050;-88
2021/08/20 07:38:20;;;;;;;9.45;4.38;;;18.10;83.90;;;;;;5015711;28;20108;-88
2021/08/20 07:40:47;;;;;;;9.27;5.05;;;18.20;83.90;;;;;;5015519;28;20465;-88
2021/08/20 07:43:14;;;;;;;5.97;3.80;;;18.20;83.90;;;;;;5010219;28;20054;-89
2021/08/20 07:45:41;;;;;;;7.55;3.75;;;18.30;83.90;;;;;;5045631;28;20053;-88
2021/08/20 07:48:09;;;;;;;8.05;3.40;;;18.30;83.80;;;;;;5000886;28;20118;-88
2021/08/20 07:50:36;;;;;;;10.43;4.10;;;18.40;83.50;;;;;;5015568;28;20053;-89
2021/08/20 07:53:03;;;;;;;6.18;3.47;;;18.40;83.30;;;;;;5015300;28;20050;-87
2021/08/20 07:55:30;;;;;;;10.80;4.03;;;18.40;83.30;;;;;;5014780;28;20057;-88
2021/08/20 07:57:57;;;;;;;7.13;3.45;;;18.40;83.30;;;;;;5014467;28;20056;-87
2021/08/20 08:00:27;;;;;;;5.95;3.08;;;18.50;83.40;;;;;;5014849;28;20041;-88
2021/08/20 08:02:55;;;;;;;7.13;3.25;;;18.60;83.20;;;;;;5013575;28;20053;-87
2021/08/20 08:05:24;;;;;;;6.68;2.95;;;18.60;83.10;;;;;;5014014;28;20050;-87
2021/08/20 08:07:54;;;;;;;5.55;2.85;;;18.70;82.80;;;;;;5046632;28;20072;-89
2021/08/20 08:10:22;;;;;;;9.23;3.67;;;18.70;82.60;;;;;;5013723;28;20058;-91
2021/08/20 08:12:49;;;;;;;5.72;2.80;;;18.80;82.50;;;;;;5011856;28;20049;-89
2021/08/20 08:15:17;;;;;;;5.30;2.90;;;18.80;82.10;;;;;;5013454;28;20379;-90
2021/08/20 08:17:44;;;;;;;4.82;2.65;;;18.80;82.00;;;;;;5013628;28;20050;-88
2021/08/20 08:20:13;;;;;;;6.88;2.70;;;18.90;81.80;;;;;;5008670;28;20516;-89
2021/08/20 08:22:41;;;;;;;6.55;2.90;;;18.90;81.70;;;;;;5014857;28;20054;-89
2021/08/20 08:25:08;;;;;;;5.93;2.70;;;18.90;81.60;;;;;;5013876;28;20104;-89
2021/08/20 08:28:05;;;;;;;7.00;2.67;;;19.00;81.50;;;;;;5013119;28;20057;-90
2021/08/20 08:30:36;;;;;;;9.18;3.03;;;19.00;81.50;;;;;;5013607;28;20050;-89
2021/08/20 08:33:03;;;;;;;6.47;2.60;;;19.10;81.40;;;;;;5013354;28;20136;-89
2021/08/20 08:35:30;;;;;;;6.47;2.50;;;19.20;81.40;;;;;;5013604;28;20056;-90
2021/08/20 08:38:05;;;;;;;7.75;2.38;;;19.20;81.40;;;;;;5013317;28;20061;-89
2021/08/20 08:40:34;;;;;;;6.72;2.80;;;19.20;81.20;;;;;;5011494;28;20116;-88
2021/08/20 08:43:04;;;;;;;5.40;2.50;;;19.30;80.90;;;;;;5014151;28;20465;-89
2021/08/20 08:45:31;;;;;;;6.15;2.40;;;19.40;80.80;;;;;;5014211;28;20054;-87
2021/08/20 08:48:01;;;;;;;3.78;2.22;;;19.40;80.60;;;;;;5012924;28;20077;-88
2021/08/20 08:50:28;;;;;;;4.30;2.17;;;19.50;80.40;;;;;;5014502;28;20053;-90
2021/08/20 08:52:55;;;;;;;4.15;2.25;;;19.50;80.20;;;;;;5012586;28;20054;-89
2021/08/20 08:55:22;;;;;;;7.68;2.45;;;19.50;79.80;;;;;;5013372;28;20050;-89
2021/08/20 08:57:49;;;;;;;4.25;2.28;;;19.50;79.60;;;;;;5012695;28;20093;-87
2021/08/20 09:00:31;;;;;;;5.22;2.58;;;19.60;79.50;;;;;;5045573;28;20438;-88
2021/08/20 09:02:59;;;;;;;5.70;2.40;;;19.60;79.50;;;;;;5013028;28;20100;-88
2021/08/20 09:05:39;;;;;;;5.63;1.95;;;19.70;79.60;;;;;;5014018;28;20064;-88
2021/08/20 09:08:14;;;;;;;7.00;2.53;;;19.80;79.60;;;;;;5013590;28;20061;-88
2021/08/20 09:11:13;;;;;;;5.25;1.88;;;19.90;79.10;;;;;;5013145;28;20410;-88
2021/08/20 09:13:40;;;;;;;4.30;2.38;;;19.90;78.70;;;;;;5013598;28;20041;-87
2021/08/20 09:16:11;;;;;;;4.32;1.95;;;19.90;78.60;;;;;;5012421;28;20494;-88
2021/08/20 09:18:39;;;;;;;4.72;2.30;;;19.90;78.60;;;;;;5009978;28;20054;-89
2021/08/20 09:21:07;;;;;;;7.50;2.50;;;19.90;78.60;;;;;;5013400;28;20061;-89
2021/08/20 09:23:34;;;;;;;4.80;2.13;;;19.90;78.80;;;;;;5012133;28;20116;-88
2021/08/20 09:26:02;;;;;;;5.90;2.30;;;20.00;78.80;;;;;;5012208;28;20081;-89
2021/08/20 09:28:33;;;;;;;7.65;2.58;;;20.00;78.90;;;;;;5013494;28;20064;-88
2021/08/20 09:31:20;;;;;;;8.88;2.97;;;20.10;78.70;;;;;;5012164;28;20052;-88
2021/08/20 09:33:50;;;;;;;4.13;2.40;;;20.10;78.30;;;;;;5012417;28;20053;-88
2021/08/20 09:36:22;;;;;;;5.22;2.35;;;20.20;78.00;;;;;;5011929;28;20536;-89
2021/08/20 09:38:54;;;;;;;5.43;2.35;;;20.30;78.00;;;;;;5013073;28;20061;-89
2021/08/20 09:41:30;;;;;;;6.90;1.92;;;20.40;77.80;;;;;;5045056;28;20074;-86
2021/08/20 09:44:01;;;;;;;6.53;2.25;;;20.40;77.60;;;;;;5044552;28;20054;-88
2021/08/20 09:46:46;;;;;;;3.97;1.90;;;20.50;77.30;;;;;;5011288;28;20041;-87
2021/08/20 09:49:16;;;;;;;5.65;2.20;;;20.60;77.20;;;;;;5013014;28;20104;-88
2021/08/20 09:51:49;;;;;;;19.48;2.47;;;20.70;77.20;;;;;;5012781;28;20046;-88
2021/08/20 09:54:21;;;;;;;6.72;2.20;;;20.80;77.00;;;;;;5012517;28;20053;-88
2021/08/20 09:56:58;;;;;;;5.20;2.20;;;20.80;76.80;;;;;;5011375;28;20046;-88
2021/08/20 09:59:30;;;;;;;4.47;2.00;;;20.90;76.60;;;;;;5013219;28;20056;-88
2021/08/20 10:02:00;;;;;;;8.18;2.28;;;20.90;76.40;;;;;;5011419;28;20112;-88
2021/08/20 10:04:30;;;;;;;5.45;2.03;;;20.90;76.30;;;;;;5012352;28;20053;-87
2021/08/20 10:06:58;;;;;;;6.25;2.08;;;20.90;76.40;;;;;;5012018;28;20053;-87
2021/08/20 10:09:28;;;;;;;4.25;2.00;;;20.90;76.20;;;;;;5012396;28;20070;-87
2021/08/20 10:11:56;;;;;;;3.45;1.60;;;20.90;75.80;;;;;;5011185;28;20042;-87
2021/08/20 10:14:25;;;;;;;5.03;1.88;;;21.00;75.20;;;;;;5012792;28;20050;-87
2021/08/20 10:16:52;;;;;;;4.85;1.80;;;21.00;74.80;;;;;;5012349;28;20054;-88
2021/08/20 10:19:20;;;;;;;4.15;1.50;;;21.00;74.60;;;;;;5012370;28;20050;-88
2021/08/20 10:21:47;;;;;;;3.63;1.58;;;21.10;74.50;;;;;;5043346;28;20641;-88
2021/08/20 10:24:15;;;;;;;4.38;1.92;;;21.10;74.60;;;;;;5011170;28;20480;-88
2021/08/20 10:26:47;;;;;;;5.95;1.88;;;21.10;74.60;;;;;;5012270;28;20180;-87
2021/08/20 10:29:14;;;;;;;4.72;1.65;;;21.00;74.50;;;;;;5010913;28;20453;-88
2021/08/20 10:31:43;;;;;;;4.45;1.70;;;21.00;74.80;;;;;;5012330;28;20065;-87
2021/08/20 10:34:29;;;;;;;4.38;1.88;;;21.00;74.80;;;;;;5010778;28;20462;-87
2021/08/20 10:37:08;;;;;;;3.92;1.60;;;21.00;75.00;;;;;;5011300;28;20528;-87
2021/08/20 10:39:36;;;;;;;8.23;1.42;;;21.10;75.20;;;;;;5011879;28;20050;-87
2021/08/20 10:42:34;;;;;;;5.45;1.63;;;21.10;75.30;;;;;;5012183;28;20057;-87
2021/08/20 10:45:09;;;;;;;3.03;1.27;;;21.20;74.60;;;;;;5011045;28;20568;-86
2021/08/20 10:47:37;;;;;;;4.53;1.50;;;21.30;74.20;;;;;;5012106;28;20127;-87
2021/08/20 10:50:08;;;;;;;8.50;1.70;;;21.30;74.10;;;;;;5009847;28;20050;-88
2021/08/20 10:52:41;;;;;;;9.27;1.92;;;21.40;74.10;;;;;;5011901;28;20120;-87
2021/08/20 10:55:29;;;;;;;4.57;1.60;;;21.40;74.20;;;;;;5011052;28;20045;-87
2021/08/20 10:58:04;;;;;;;5.57;1.55;;;21.40;74.30;;;;;;5011815;28;20053;-88
2021/08/20 11:00:37;;;;;;;4.47;1.55;;;21.50;74.20;;;;;;5011961;28;20537;-87
2021/08/20 11:03:08;;;;;;;2.53;1.17;;;21.50;74.00;;;;;;4996602;28;20141;-88
2021/08/20 11:05:40;;;;;;;5.78;1.30;;;21.60;73.80;;;;;;5011777;28;20435;-89
2021/08/20 11:08:27;;;;;;;4.20;1.60;;;21.70;73.40;;;;;;5012330;28;20053;-89
2021/08/20 11:10:59;;;;;;;5.00;1.30;;;21.80;73.30;;;;;;5011741;28;20045;-89
2021/08/20 11:13:27;;;;;;;3.38;1.10;;;21.90;73.10;;;;;;5011612;28;20107;-87
2021/08/20 11:15:55;;;;;;;3.95;1.20;;;21.90;72.80;;;;;;5011583;28;20410;-89
2021/08/20 11:18:43;;;;;;;3.50;1.10;;;21.90;72.40;;;;;;5008094;28;20584;-88
2021/08/20 11:21:30;;;;;;;4.60;1.30;;;21.90;72.00;;;;;;4997316;28;20077;-89
2021/08/20 11:24:18;;;;;;;7.07;1.40;;;21.80;71.60;;;;;;5010631;28;20100;-88
2021/08/20 11:26:45;;;;;;;3.22;1.30;;;21.80;71.60;;;;;;5010163;28;20057;-87
2021/08/20 11:29:16;;;;;;;6.22;1.50;;;21.80;71.80;;;;;;5009926;28;20057;-89
2021/08/20 11:31:43;;;;;;;6.13;1.40;;;21.80;71.70;;;;;;5033917;28;20067;-89
2021/08/20 11:34:10;;;;;;;3.08;1.30;;;21.80;71.80;;;;;;5005045;28;20061;-88
2021/08/20 11:36:43;;;;;;;4.70;1.40;;;21.90;72.00;;;;;;5011475;28;20457;-88
2021/08/20 11:39:12;;;;;;;3.10;1.20;;;21.90;72.00;;;;;;5043235;28;20637;-87
2021/08/20 11:41:44;;;;;;;2.60;1.23;;;21.90;71.20;;;;;;5010635;28;20061;-87
2021/08/20 11:44:13;;;;;;;3.72;0.93;;;22.10;70.60;;;;;;5010703;28;20432;-87
2021/08/20 11:46:44;;;;;;;4.15;0.93;;;22.10;70.30;;;;;;5011711;28;20049;-88
2021/08/20 11:49:25;;;;;;;2.80;0.88;;;22.20;69.80;;;;;;5014523;28;20050;-88
2021/08/20 11:52:01;;;;;;;4.60;1.35;;;22.30;69.90;;;;;;5015040;28;20533;-88
2021/08/20 11:54:39;;;;;;;2.85;1.08;;;22.30;70.00;;;;;;5015097;28;20046;-88
2021/08/20 11:57:06;;;;;;;3.90;1.30;;;22.40;69.60;;;;;;5000235;28;20046;-88
2021/08/20 11:59:34;;;;;;;4.47;0.90;;;22.40;69.60;;;;;;5015239;28;20510;-88
2021/08/20 12:02:04;;;;;;;2.55;1.00;;;22.40;69.30;;;;;;5013678;28;20049;-89
2021/08/20 12:04:35;;;;;;;6.25;1.42;;;22.50;69.20;;;;;;5013091;28;20493;-87
2021/08/20 12:07:04;;;;;;;5.85;1.45;;;22.50;69.20;;;;;;5012150;28;20532;-87
2021/08/20 12:09:32;;;;;;;4.80;1.55;;;22.60;69.70;;;;;;5013430;28;20054;-87
2021/08/20 12:12:00;;;;;;;4.80;1.60;;;22.60;70.30;;;;;;5014565;28;20060;-90
2021/08/20 12:14:43;;;;;;;3.40;1.40;;;22.70;70.30;;;;;;5012503;28;20042;-90
2021/08/20 12:17:23;;;;;;;2.30;1.05;;;22.80;70.40;;;;;;5013381;28;20144;-88
2021/08/20 12:19:50;;;;;;;7.22;1.88;;;22.80;70.50;;;;;;5014190;28;20053;-88
2021/08/20 12:22:17;;;;;;;4.90;1.38;;;22.90;70.50;;;;;;5040161;28;20054;-87
2021/08/20 12:24:50;;;;;;;5.50;1.50;;;22.90;70.40;;;;;;5004805;28;20042;-89
2021/08/20 12:27:18;;;;;;;5.82;1.85;;;23.10;70.20;;;;;;5045837;28;20057;-88
2021/08/20 12:29:58;;;;;;;3.88;1.50;;;23.20;70.10;;;;;;5013443;28;20116;-88
2021/08/20 12:32:27;;;;;;;5.60;1.50;;;23.20;69.50;;;;;;5029224;28;20475;-92
2021/08/20 12:35:04;;;;;;;4.43;1.70;;;23.30;68.20;;;;;;5013953;28;20103;-89
2021/08/20 12:38:02;;;;;;;4.90;1.60;;;23.20;66.70;;;;;;5043115;28;20050;-89
2021/08/20 12:40:50;;;;;;;4.22;1.35;;;23.30;66.90;;;;;;5012909;28;20050;-88
2021/08/20 12:43:37;;;;;;;5.05;1.60;;;23.30;67.00;;;;;;5014094;28;20049;-89
2021/08/20 12:46:20;;;;;;;7.18;2.08;;;23.30;67.60;;;;;;5013933;28;20049;-88
2021/08/20 12:48:53;;;;;;;5.43;1.77;;;23.30;67.60;;;;;;5014022;28;20475;-88
2021/08/20 12:51:21;;;;;;;4.85;1.67;;;23.40;67.60;;;;;;5013772;28;20049;-88
2021/08/20 12:54:01;;;;;;;9.07;1.73;;;23.50;67.70;;;;;;5013940;28;20054;-90
2021/08/20 12:56:36;;;;;;;3.17;1.52;;;23.60;67.80;;;;;;5014288;28;20490;-88
2021/08/20 12:59:06;;;;;;;5.25;1.60;;;23.80;67.80;;;;;;5012622;28;20054;-89